createdAt,value
2022-10-22T00:02:00.784Z,6.40
2022-10-22T00:04:31.437Z,6.17
2022-10-22T00:07:01.143Z,5.93
2022-10-22T00:09:27.665Z,6.50
2022-10-22T00:11:54.174Z,5.70
2022-10-22T00:14:20.794Z,6.60
2022-10-22T00:16:47.486Z,6.67
2022-10-22T00:19:15.094Z,7.00
2022-10-22T00:21:41.612Z,6.40
2022-10-22T00:24:08.233Z,6.33
2022-10-22T00:26:35.096Z,6.83
2022-10-22T00:29:01.838Z,7.00
2022-10-22T00:31:28.332Z,6.20
2022-10-22T00:33:54.855Z,6.80
2022-10-22T00:36:21.350Z,6.57
2022-10-22T00:38:47.832Z,7.20
2022-10-22T00:41:14.718Z,7.80
2022-10-22T00:44:13.696Z,6.70
2022-10-22T00:46:40.249Z,6.87
2022-10-22T00:49:06.877Z,6.13
2022-10-22T00:51:34.185Z,6.30
2022-10-22T00:54:02.982Z,7.50
2022-10-22T00:56:29.850Z,6.47
2022-10-22T00:58:57.686Z,7.93
2022-10-22T01:01:26.350Z,7.83
2022-10-22T01:03:53.323Z,6.63
2022-10-22T01:06:30.854Z,7.23
2022-10-22T01:09:13.261Z,6.73
2022-10-22T01:11:58.862Z,6.97
2022-10-22T01:14:48.612Z,7.00
2022-10-22T01:17:22.035Z,7.77
2022-10-22T01:20:07.420Z,7.50
2022-10-22T01:22:47.170Z,6.63
2022-10-22T01:25:20.108Z,6.50
2022-10-22T01:27:53.113Z,7.40
2022-10-22T01:30:20.146Z,8.00
2022-10-22T01:32:49.463Z,8.10
2022-10-22T01:35:17.785Z,7.67
2022-10-22T01:37:47.046Z,7.07
2022-10-22T01:40:15.109Z,7.93
2022-10-22T01:42:41.674Z,9.43
2022-10-22T01:45:14.396Z,9.63
2022-10-22T01:47:53.515Z,8.67
2022-10-22T01:50:32.437Z,10.93
2022-10-22T01:53:08.581Z,8.80
2022-10-22T01:55:46.459Z,10.03
2022-10-22T01:58:13.026Z,8.40
2022-10-22T02:00:44.606Z,8.40
2022-10-22T02:03:18.584Z,9.20
2022-10-22T02:05:49.572Z,8.07
2022-10-22T02:08:19.171Z,9.33
2022-10-22T02:10:46.924Z,7.63
2022-10-22T02:13:23.232Z,8.93
2022-10-22T02:15:51.378Z,10.27
2022-10-22T02:18:19.544Z,10.03
2022-10-22T02:20:46.129Z,9.20
2022-10-22T02:23:13.200Z,8.90
2022-10-22T02:25:41.889Z,10.03
2022-10-22T02:28:23.660Z,10.70
2022-10-22T02:30:54.881Z,10.47
2022-10-22T02:33:22.803Z,9.93
2022-10-22T02:35:50.156Z,9.60
2022-10-22T02:38:16.953Z,8.53
2022-10-22T02:40:43.534Z,8.40
2022-10-22T02:43:10.126Z,8.67
2022-10-22T02:45:36.790Z,8.70
2022-10-22T02:48:03.417Z,9.07
2022-10-22T02:50:29.950Z,9.80
2022-10-22T02:52:56.511Z,8.60
2022-10-22T02:55:23.070Z,7.97
2022-10-22T02:57:50.726Z,9.33
2022-10-22T03:00:17.442Z,7.67
2022-10-22T03:02:43.927Z,7.63
2022-10-22T03:05:10.715Z,7.20
2022-10-22T03:07:37.667Z,8.57
2022-10-22T03:10:04.737Z,8.60
2022-10-22T03:12:31.469Z,9.90
2022-10-22T03:14:58.005Z,8.70
2022-10-22T03:17:24.615Z,10.20
2022-10-22T03:19:51.235Z,9.63
2022-10-22T03:22:19.948Z,11.57
2022-10-22T03:24:47.719Z,9.63
2022-10-22T03:27:15.327Z,11.10
2022-10-22T03:29:42.576Z,11.10
2022-10-22T03:32:09.237Z,9.50
2022-10-22T03:34:35.791Z,9.87
2022-10-22T03:37:02.863Z,10.40
2022-10-22T03:39:30.181Z,10.40
2022-10-22T03:41:56.795Z,10.47
2022-10-22T03:44:23.666Z,11.57
2022-10-22T03:46:51.147Z,11.80
2022-10-22T03:49:17.767Z,12.13
2022-10-22T03:51:44.272Z,9.90
2022-10-22T03:54:10.822Z,11.40
2022-10-22T03:56:37.404Z,10.73
2022-10-22T03:59:04.299Z,13.20
2022-10-22T04:01:31.002Z,11.97
2022-10-22T04:03:57.979Z,11.40
2022-10-22T04:06:24.804Z,12.70
2022-10-22T04:08:51.640Z,10.70
2022-10-22T04:11:18.316Z,10.10
2022-10-22T04:13:44.948Z,12.77
2022-10-22T04:16:12.869Z,11.43
2022-10-22T04:18:39.939Z,9.63
2022-10-22T04:21:07.234Z,10.07
2022-10-22T04:23:33.846Z,9.93
2022-10-22T04:26:01.339Z,11.37
2022-10-22T04:28:28.021Z,11.13
2022-10-22T04:30:54.539Z,9.60
2022-10-22T04:33:21.697Z,10.70
2022-10-22T04:35:48.413Z,11.73
2022-10-22T04:38:14.965Z,11.30
2022-10-22T04:40:41.653Z,10.63
2022-10-22T04:43:08.193Z,9.90
2022-10-22T04:45:35.874Z,9.80
2022-10-22T04:48:02.916Z,11.00
2022-10-22T04:50:29.889Z,10.23
2022-10-22T04:52:56.434Z,10.77
2022-10-22T04:55:22.976Z,8.97
2022-10-22T04:57:49.541Z,8.70
2022-10-22T05:00:16.825Z,6.90
2022-10-22T05:02:44.884Z,7.47
2022-10-22T05:05:12.124Z,6.07
2022-10-22T05:07:38.983Z,5.73
2022-10-22T05:10:05.830Z,5.90
2022-10-22T05:12:32.593Z,6.10
2022-10-22T05:14:59.099Z,4.70
2022-10-22T05:17:25.672Z,5.23
2022-10-22T05:19:52.230Z,5.77
2022-10-22T05:22:18.844Z,6.73
2022-10-22T05:24:45.429Z,7.33
2022-10-22T05:27:12.331Z,4.90
2022-10-22T05:29:38.970Z,4.07
2022-10-22T05:32:05.796Z,5.83
2022-10-22T05:34:33.341Z,4.47
2022-10-22T05:36:59.842Z,4.03
2022-10-22T05:39:26.408Z,4.00
2022-10-22T05:41:53.960Z,3.50
2022-10-22T05:44:20.741Z,3.00
2022-10-22T05:46:47.520Z,3.70
2022-10-22T05:49:15.239Z,3.33
2022-10-22T05:51:41.799Z,3.80
2022-10-22T05:54:08.702Z,3.07
2022-10-22T05:56:36.970Z,4.47
2022-10-22T06:01:37.998Z,3.10
2022-10-22T06:04:05.991Z,3.10
2022-10-22T06:06:35.487Z,2.90
2022-10-22T06:09:13.519Z,3.10
2022-10-22T06:11:40.197Z,4.23
2022-10-22T06:14:06.750Z,2.80
2022-10-22T06:16:33.292Z,4.70
2022-10-22T06:19:03.342Z,2.03
2022-10-22T06:21:30.440Z,2.90
2022-10-22T06:23:58.059Z,3.20
2022-10-22T06:26:24.746Z,2.63
2022-10-22T06:28:51.291Z,3.20
2022-10-22T06:31:17.996Z,1.50
2022-10-22T06:33:44.490Z,3.10
2022-10-22T06:36:12.697Z,2.97
2022-10-22T06:38:39.536Z,2.30
2022-10-22T06:41:13.745Z,2.83
2022-10-22T06:43:40.936Z,2.50
2022-10-22T06:46:09.961Z,3.27
2022-10-22T06:48:38.170Z,2.57
2022-10-22T06:51:05.470Z,3.07
2022-10-22T06:53:31.982Z,3.30
2022-10-22T06:55:58.502Z,3.27
2022-10-22T06:58:25.056Z,3.47
2022-10-22T07:01:00.403Z,2.60
2022-10-22T07:03:26.988Z,2.90
2022-10-22T07:05:53.776Z,2.80
2022-10-22T07:08:20.432Z,2.57
2022-10-22T07:10:46.951Z,1.63
2022-10-22T07:13:13.537Z,3.43
2022-10-22T07:15:40.057Z,2.03
2022-10-22T07:18:06.701Z,2.07
2022-10-22T07:20:33.178Z,2.20
2022-10-22T07:22:59.714Z,2.00
2022-10-22T07:25:26.371Z,2.57
2022-10-22T07:27:52.877Z,1.87
2022-10-22T07:30:19.626Z,1.93
2022-10-22T07:32:46.187Z,1.67
2022-10-22T07:35:12.897Z,2.43
2022-10-22T07:37:39.779Z,2.90
2022-10-22T07:40:06.840Z,2.23
2022-10-22T07:42:33.491Z,2.77
2022-10-22T07:45:00.219Z,2.97
2022-10-22T07:47:26.778Z,2.43
2022-10-22T07:49:53.284Z,2.80
2022-10-22T07:52:19.757Z,2.77
2022-10-22T07:54:46.326Z,2.77
2022-10-22T07:57:12.985Z,1.87
2022-10-22T07:59:39.443Z,2.07
2022-10-22T08:02:05.961Z,3.07
2022-10-22T08:04:32.610Z,2.00
2022-10-22T08:06:59.090Z,2.07
2022-10-22T08:09:25.620Z,2.57
2022-10-22T08:11:52.337Z,2.80
2022-10-22T08:14:18.834Z,2.47
2022-10-22T08:16:45.400Z,1.73
2022-10-22T08:19:11.962Z,2.03
2022-10-22T08:21:38.428Z,2.00
2022-10-22T08:26:36.754Z,1.87
2022-10-22T08:29:03.340Z,2.30
2022-10-22T08:31:29.945Z,2.27
2022-10-22T08:33:56.467Z,2.27
2022-10-22T08:36:23.065Z,1.80
2022-10-22T08:38:49.547Z,2.00
2022-10-22T08:41:17.496Z,2.10
2022-10-22T08:43:51.912Z,5.23
2022-10-22T08:46:25.452Z,3.20
2022-10-22T08:48:57.307Z,1.87
2022-10-22T08:51:25.760Z,2.63
2022-10-22T08:54:01.779Z,2.53
2022-10-22T08:56:28.889Z,1.67
2022-10-22T08:58:58.597Z,1.73
2022-10-22T09:01:28.218Z,2.73
2022-10-22T09:04:26.269Z,1.80
2022-10-22T09:06:54.505Z,1.73
2022-10-22T09:09:21.701Z,1.80
2022-10-22T09:11:50.416Z,2.30
2022-10-22T09:14:18.602Z,2.30
2022-10-22T09:17:04.816Z,1.90
2022-10-22T09:19:50.164Z,2.70
2022-10-22T09:22:25.515Z,2.37
2022-10-22T09:25:11.163Z,2.80
2022-10-22T09:27:37.796Z,1.33
2022-10-22T09:30:04.805Z,2.00
2022-10-22T09:32:32.174Z,2.10
2022-10-22T09:34:58.745Z,1.77
2022-10-22T09:37:27.474Z,2.20
2022-10-22T09:39:54.931Z,2.70
2022-10-22T09:42:22.208Z,1.87
2022-10-22T09:44:54.020Z,1.73
2022-10-22T09:47:42.866Z,2.10
2022-10-22T09:50:29.273Z,1.53
2022-10-22T09:52:58.927Z,1.53
2022-10-22T09:55:26.200Z,1.83
2022-10-22T09:57:53.655Z,2.10
2022-10-22T10:00:20.559Z,1.00
2022-10-22T10:02:47.120Z,1.80
2022-10-22T10:05:21.123Z,1.50
2022-10-22T10:07:48.310Z,2.00
2022-10-22T10:10:21.196Z,1.97
2022-10-22T10:13:02.500Z,2.47
2022-10-22T10:15:37.436Z,1.73
2022-10-22T10:18:14.537Z,2.20
2022-10-22T10:20:54.267Z,1.77
2022-10-22T10:23:29.699Z,1.23
2022-10-22T10:26:15.103Z,2.63
2022-10-22T10:28:51.280Z,2.00
2022-10-22T10:31:27.695Z,1.20
2022-10-22T10:34:12.576Z,1.80
2022-10-22T10:36:42.120Z,1.60
2022-10-22T10:39:27.389Z,1.83
2022-10-22T10:42:15.846Z,2.07
2022-10-22T10:44:52.757Z,2.70
2022-10-22T10:47:28.403Z,2.20
2022-10-22T10:49:57.840Z,2.10
2022-10-22T10:52:41.861Z,1.60
2022-10-22T10:55:18.615Z,1.10
2022-10-22T10:57:48.441Z,1.77
2022-10-22T11:00:14.898Z,1.50
2022-10-22T11:02:45.111Z,1.33
2022-10-22T11:05:28.172Z,1.93
2022-10-22T11:08:00.888Z,1.97
2022-10-22T11:10:27.549Z,1.53
2022-10-22T11:12:57.716Z,1.40
2022-10-22T11:15:38.085Z,1.20
2022-10-22T11:18:11.209Z,1.93
2022-10-22T11:20:50.198Z,2.20
2022-10-22T11:23:22.497Z,1.97
2022-10-22T11:25:50.232Z,2.30
2022-10-22T11:28:32.007Z,1.10
2022-10-22T11:31:01.558Z,1.07
2022-10-22T11:33:30.793Z,2.90
2022-10-22T11:35:57.726Z,1.47
2022-10-22T11:38:25.690Z,1.40
2022-10-22T11:40:56.585Z,1.30
2022-10-22T11:43:28.078Z,2.30
2022-10-22T11:46:00.808Z,4.17
2022-10-22T11:48:28.458Z,1.33
2022-10-22T11:50:56.525Z,2.83
2022-10-22T11:53:26.005Z,2.30
2022-10-22T11:55:55.391Z,1.40
2022-10-22T11:58:31.018Z,1.07
2022-10-22T12:01:17.377Z,1.20
2022-10-22T12:03:48.254Z,1.17
2022-10-22T12:06:19.724Z,1.60
2022-10-22T12:08:49.353Z,1.70
2022-10-22T12:11:19.100Z,1.83
2022-10-22T12:14:04.610Z,1.57
2022-10-22T12:16:55.618Z,1.57
2022-10-22T12:19:22.923Z,1.40
2022-10-22T12:21:54.068Z,1.30
2022-10-22T12:24:22.297Z,1.23
2022-10-22T12:26:52.743Z,1.37
2022-10-22T12:29:22.635Z,1.17
2022-10-22T12:31:49.296Z,1.10
2022-10-22T12:34:21.797Z,2.00
2022-10-22T12:36:49.357Z,1.20
2022-10-22T12:39:17.659Z,1.10
2022-10-22T12:41:44.486Z,0.70
2022-10-22T12:44:12.466Z,1.47
2022-10-22T12:46:39.296Z,1.30
2022-10-22T12:49:08.272Z,1.47
2022-10-22T12:51:34.931Z,0.80
2022-10-22T12:54:09.342Z,1.30
2022-10-22T12:56:36.646Z,0.97
2022-10-22T12:59:21.723Z,1.40
2022-10-22T13:01:49.432Z,1.07
2022-10-22T13:04:31.235Z,1.13
2022-10-22T13:07:13.709Z,1.07
2022-10-22T13:09:44.285Z,1.60
2022-10-22T13:12:16.220Z,2.40
2022-10-22T13:14:44.459Z,3.07
2022-10-22T13:17:11.184Z,1.40
2022-10-22T13:19:42.365Z,1.30
2022-10-22T13:22:27.744Z,1.10
2022-10-22T13:27:23.546Z,2.27
2022-10-22T13:29:50.656Z,1.20
2022-10-22T13:32:29.642Z,1.37
2022-10-22T13:34:57.009Z,1.73
2022-10-22T13:37:23.772Z,1.20
2022-10-22T13:39:50.440Z,1.10
2022-10-22T13:42:16.970Z,1.23
2022-10-22T13:44:43.481Z,1.60
2022-10-22T13:47:22.203Z,1.03
2022-10-22T13:49:48.769Z,1.00
2022-10-22T13:52:19.372Z,1.80
2022-10-22T13:54:45.876Z,1.63
2022-10-22T13:57:12.561Z,1.73
2022-10-22T13:59:39.091Z,1.10
2022-10-22T14:02:11.149Z,2.10
2022-10-22T14:04:39.073Z,1.07
2022-10-22T14:07:12.682Z,1.20
2022-10-22T14:09:39.191Z,1.30
2022-10-22T14:12:13.378Z,1.33
2022-10-22T14:14:40.153Z,0.80
2022-10-22T14:17:09.021Z,1.17
2022-10-22T14:19:35.497Z,1.23
2022-10-22T14:22:02.197Z,1.07
2022-10-22T14:24:28.731Z,1.40
2022-10-22T14:26:55.249Z,1.10
2022-10-22T14:29:22.184Z,1.50
2022-10-22T14:31:48.748Z,2.17
2022-10-22T14:34:15.781Z,1.10
2022-10-22T14:36:45.220Z,1.20
2022-10-22T14:39:12.445Z,1.30
2022-10-22T14:41:39.106Z,3.83
2022-10-22T14:44:05.765Z,2.87
2022-10-22T14:46:32.368Z,1.57
2022-10-22T14:48:58.900Z,1.17
2022-10-22T14:51:25.470Z,2.20
2022-10-22T14:53:52.182Z,1.27
2022-10-22T14:56:21.297Z,1.57
2022-10-22T14:58:48.302Z,0.90
2022-10-22T15:01:15.142Z,1.63
2022-10-22T15:03:41.760Z,0.90
2022-10-22T15:06:08.447Z,1.30
2022-10-22T15:08:35.142Z,1.10
2022-10-22T15:11:03.379Z,1.20
2022-10-22T15:13:30.699Z,1.07
2022-10-22T15:15:57.660Z,1.33
2022-10-22T15:18:24.866Z,1.20
2022-10-22T15:20:55.845Z,1.07
2022-10-22T15:23:22.592Z,1.90
2022-10-22T15:25:49.171Z,1.00
2022-10-22T15:28:15.725Z,2.70
2022-10-22T15:30:42.216Z,1.43
2022-10-22T15:33:08.817Z,1.83
2022-10-22T15:35:35.601Z,1.43
2022-10-22T15:38:02.231Z,1.50
2022-10-22T15:40:28.699Z,3.47
2022-10-22T15:42:55.421Z,2.20
2022-10-22T15:45:22.608Z,2.90
2022-10-22T15:47:49.613Z,2.40
2022-10-22T15:50:16.840Z,1.67
2022-10-22T15:52:43.408Z,1.83
2022-10-22T15:55:10.646Z,2.50
2022-10-22T15:57:37.622Z,1.60
2022-10-22T16:00:04.777Z,1.23
2022-10-22T16:02:39.035Z,1.40
2022-10-22T16:05:05.745Z,1.40
2022-10-22T16:07:32.265Z,1.73
2022-10-22T16:10:00.361Z,1.93
2022-10-22T16:12:26.918Z,1.50
2022-10-22T16:14:53.457Z,2.33
2022-10-22T16:17:20.041Z,5.57
2022-10-22T16:19:47.741Z,2.80
2022-10-22T16:22:15.622Z,3.70
2022-10-22T16:24:42.193Z,1.23
2022-10-22T16:27:09.213Z,1.90
2022-10-22T16:29:37.312Z,3.73
2022-10-22T16:32:03.869Z,7.90
2022-10-22T16:34:30.484Z,7.70
2022-10-22T16:36:57.240Z,8.03
2022-10-22T16:39:24.057Z,3.33
2022-10-22T16:41:50.635Z,7.87
2022-10-22T16:44:17.394Z,13.30
2022-10-22T16:46:43.968Z,9.77
2022-10-22T16:49:11.515Z,6.27
2022-10-22T16:51:38.213Z,2.57
2022-10-22T16:54:08.126Z,2.60
2022-10-22T16:56:37.994Z,4.10
2022-10-22T16:59:04.620Z,2.87
2022-10-22T17:01:31.382Z,3.27
2022-10-22T17:04:01.300Z,3.03
2022-10-22T17:06:27.944Z,3.07
2022-10-22T17:08:54.659Z,5.13
2022-10-22T17:11:22.589Z,2.07
2022-10-22T17:13:51.251Z,3.70
2022-10-22T17:16:19.047Z,3.60
2022-10-22T17:21:13.864Z,3.60
2022-10-22T17:23:40.730Z,3.20
2022-10-22T17:26:08.291Z,4.60
2022-10-22T17:28:36.221Z,4.37
2022-10-22T17:31:07.059Z,3.80
2022-10-22T17:33:34.787Z,4.87
2022-10-22T17:36:01.433Z,4.57
2022-10-22T17:38:28.478Z,4.20
2022-10-22T17:40:56.635Z,4.40
2022-10-22T17:43:23.224Z,4.60
2022-10-22T17:45:49.960Z,4.90
2022-10-22T17:48:16.492Z,5.30
2022-10-22T17:50:46.990Z,5.33
2022-10-22T17:53:16.371Z,5.10
2022-10-22T17:55:42.984Z,5.07
2022-10-22T17:58:09.521Z,4.43
2022-10-22T18:00:36.318Z,4.73
2022-10-22T18:03:02.893Z,4.50
2022-10-22T18:05:29.610Z,4.63
2022-10-22T18:07:56.864Z,5.30
2022-10-22T18:10:23.795Z,6.10
2022-10-22T18:12:50.583Z,5.63
2022-10-22T18:15:17.220Z,5.63
2022-10-22T18:17:44.105Z,5.87
2022-10-22T18:20:11.243Z,6.00
2022-10-22T18:22:37.849Z,5.83
2022-10-22T18:25:04.677Z,4.90
2022-10-22T18:27:31.328Z,7.73
2022-10-22T18:29:57.955Z,6.60
2022-10-22T18:32:24.531Z,7.67
2022-10-22T18:34:51.151Z,7.43
2022-10-22T18:37:17.728Z,6.57
2022-10-22T18:39:44.340Z,6.23
2022-10-22T18:42:11.163Z,8.43
2022-10-22T18:44:37.810Z,7.13
2022-10-22T18:47:04.532Z,6.83
2022-10-22T18:49:31.150Z,6.20
2022-10-22T18:51:57.649Z,5.80
2022-10-22T18:54:24.720Z,5.23
2022-10-22T18:56:52.316Z,6.30
2022-10-22T18:59:20.094Z,4.43
2022-10-22T19:01:46.931Z,4.90
2022-10-22T19:04:14.095Z,4.67
2022-10-22T19:06:44.475Z,4.73
2022-10-22T19:09:12.448Z,5.53
2022-10-22T19:11:39.254Z,5.47
2022-10-22T19:14:05.799Z,7.03
2022-10-22T19:16:34.732Z,5.97
2022-10-22T19:19:05.495Z,5.43
2022-10-22T19:21:32.679Z,4.10
2022-10-22T19:24:00.151Z,4.50
2022-10-22T19:26:27.604Z,4.80
2022-10-22T19:28:56.166Z,5.27
2022-10-22T19:31:23.685Z,6.03
2022-10-22T19:33:50.879Z,6.60
2022-10-22T19:36:18.031Z,7.07
2022-10-22T19:38:46.664Z,6.17
2022-10-22T19:41:14.356Z,5.87
2022-10-22T19:43:41.686Z,5.50
2022-10-22T19:46:08.626Z,5.50
2022-10-22T19:48:35.748Z,5.47
2022-10-22T19:51:03.824Z,5.43
2022-10-22T19:53:31.261Z,3.50
2022-10-22T19:55:58.285Z,5.63
2022-10-22T19:58:25.050Z,5.40
2022-10-22T20:00:52.141Z,6.10
2022-10-22T20:03:20.022Z,6.17
2022-10-22T20:05:47.612Z,7.33
2022-10-22T20:08:14.172Z,6.73
2022-10-22T20:10:40.886Z,5.50
2022-10-22T20:13:07.548Z,6.00
2022-10-22T20:15:34.924Z,5.50
2022-10-22T20:18:01.596Z,6.10
2022-10-22T20:20:28.132Z,7.00
2022-10-22T20:22:54.671Z,6.00
2022-10-22T20:25:21.790Z,5.50
2022-10-22T20:27:48.350Z,5.87
2022-10-22T20:32:42.364Z,4.90
2022-10-22T20:35:09.377Z,5.70
2022-10-22T20:37:35.991Z,6.23
2022-10-22T20:40:02.872Z,5.20
2022-10-22T20:42:29.500Z,6.57
2022-10-22T20:44:56.162Z,5.70
2022-10-22T20:47:27.316Z,6.83
2022-10-22T20:50:00.977Z,5.50
2022-10-22T20:52:27.742Z,6.53
2022-10-22T20:54:54.430Z,4.73
2022-10-22T20:57:21.216Z,6.23
2022-10-22T20:59:48.383Z,5.43
2022-10-22T21:02:14.987Z,7.37
2022-10-22T21:04:44.100Z,5.80
2022-10-22T21:07:12.294Z,6.13
2022-10-22T21:09:38.871Z,5.90
2022-10-22T21:12:06.395Z,6.93
2022-10-22T21:14:33.015Z,5.53
2022-10-22T21:16:59.791Z,6.97
2022-10-22T21:19:26.891Z,5.20
2022-10-22T21:21:53.466Z,4.60
2022-10-22T21:24:24.732Z,4.77
2022-10-22T21:26:52.411Z,4.93
2022-10-22T21:29:19.550Z,4.00
2022-10-22T21:31:46.151Z,4.77
2022-10-22T21:34:13.342Z,5.07
2022-10-22T21:36:40.672Z,5.37
2022-10-22T21:39:07.306Z,4.87
2022-10-22T21:41:33.841Z,6.97
2022-10-22T21:44:00.392Z,5.57
2022-10-22T21:46:27.524Z,5.70
2022-10-22T21:48:55.232Z,5.43
2022-10-22T21:51:23.080Z,4.60
2022-10-22T21:53:49.641Z,4.00
2022-10-22T21:56:20.381Z,4.40
2022-10-22T21:58:47.353Z,4.73
2022-10-22T22:01:14.523Z,5.27
2022-10-22T22:03:42.641Z,5.40
2022-10-22T22:06:09.390Z,6.10
2022-10-22T22:08:35.953Z,5.30
2022-10-22T22:11:06.606Z,4.67
2022-10-22T22:13:33.781Z,4.30
2022-10-22T22:16:01.415Z,4.97
2022-10-22T22:18:28.150Z,5.60
2022-10-22T22:20:54.703Z,6.70
2022-10-22T22:23:21.453Z,6.10
2022-10-22T22:25:48.099Z,6.20
2022-10-22T22:28:14.860Z,6.40
2022-10-22T22:30:41.366Z,7.00
2022-10-22T22:33:07.954Z,6.60
2022-10-22T22:38:09.017Z,7.30
2022-10-22T22:40:37.702Z,6.40
2022-10-22T22:43:04.509Z,7.03
2022-10-22T22:45:31.006Z,6.20
2022-10-22T22:47:57.522Z,5.93
2022-10-22T22:50:24.069Z,7.17
2022-10-22T22:52:50.626Z,6.50
2022-10-22T22:55:17.187Z,9.50
2022-10-22T22:57:43.772Z,7.97
2022-10-22T23:00:10.685Z,7.80
2022-10-22T23:02:37.369Z,8.70
2022-10-22T23:05:04.109Z,8.93
2022-10-22T23:07:30.810Z,8.40
2022-10-22T23:09:57.475Z,8.20
2022-10-22T23:12:24.248Z,9.57
2022-10-22T23:14:51.532Z,9.47
2022-10-22T23:17:19.585Z,7.40
2022-10-22T23:19:46.302Z,7.40
2022-10-22T23:22:12.874Z,7.80
2022-10-22T23:24:39.594Z,9.20
2022-10-22T23:27:06.307Z,8.57
2022-10-22T23:29:34.047Z,8.63
2022-10-22T23:32:01.469Z,7.77
2022-10-22T23:34:28.822Z,7.80
2022-10-22T23:36:56.084Z,8.10
2022-10-22T23:39:24.037Z,9.10
2022-10-22T23:41:51.073Z,8.60
2022-10-22T23:44:17.597Z,8.60
2022-10-22T23:46:44.147Z,9.87
2022-10-22T23:49:11.024Z,9.67
2022-10-22T23:51:38.339Z,9.13
2022-10-22T23:54:06.313Z,9.30
2022-10-22T23:56:33.232Z,9.13
2022-10-22T23:59:00.334Z,10.23
